• Join FlightAware (Why Join?)
  • Login
  • US Flag 
11:05PM EDT


 

Airport Tracker/Info


-or-


 

Live Flight TrackerFlight Track Log ✈ CNS56 ✈ 24-Apr-2012 ✈ 07FA - KIAD

Flight Track Log - Related Links

Times and Time Zones

All times are in EDT time to prevent confusion due to time zone crossing. See the CNS56 flight status page for this flight to view local times or setup timezone preferences in your user account.

Time Position Orientation Groundspeed Altitude Reporting Facility
EDT Latitude Longitude Course Direction KTS MPH feet Rate Location/Type
11:41AM 25.3389 -80.2617 North 79 91 1,000  Level Miami Center
11:42AM 25.3744 -80.2581 354° North 151 174 2,000 1,200 Climbing Miami Center
11:43AM 25.4225 -80.2639 359° North 167 192 3,500 1,380 Climbing Miami Center
11:44AM 25.4661 -80.2650 358° North 158 182 4,900 1,080 Climbing Miami Center
11:44AM 25.5081 -80.2664 317° Northwest 165 190 5,700 900 Climbing Miami Center
11:46AM 25.5406 -80.2994 303° West 169 194 6,700 1,080 Climbing Miami Center
11:47AM 25.5667 -80.3439 308° West 169 194 8,000 1,260 Climbing Miami Center
11:48AM 25.5969 -80.3861 358° North 168 193 9,300 1,200 Climbing Miami Center
11:49AM 25.6492 -80.3878 North 179 206 10,500 1,080 Climbing Miami Center
11:50AM 25.6994 -80.3847 359° North 184 212 11,600 1,020 Climbing Miami Center
11:51AM 25.7536 -80.3861 358° North 186 214 12,600 960 Climbing Miami Center
11:52AM 25.8039 -80.3878 North 186 214 13,600 1,140 Climbing Miami Center
11:53AM 25.8561 -80.3869 North 200 230 14,900 1,080 Climbing Miami Center
11:54AM 25.9083 -80.3861 358° North 194 223 15,800 900 Climbing Miami Center
11:55AM 25.9625 -80.3878 North 194 223 16,800 960 Climbing Miami Center
11:56AM 26.0169 -80.3847 North 194 223 17,800 900 Climbing Miami Center
11:57AM 26.0733 -80.3842 North 194 223 18,600 840 Climbing Miami Center
11:58AM 26.1278 -80.3811 352° North 194 223 19,500 780 Climbing Miami Center
11:59AM 26.1819 -80.3894 327° Northwest 194 223 20,200 660 Climbing Miami Center
12:00PM 26.2250 -80.4211 327° Northwest 183 211 20,900 360 Climbing Miami Center
12:01PM 26.2722 -80.4547 339° North 190 219 21,000  Climbing Miami Center
12:02PM 26.3258 -80.4772 337° Northwest 213 245 21,000  Level Miami Center
12:03PM 26.3900 -80.5072 338° Northwest 228 262 21,000  Level Miami Center
12:04PM 26.4456 -80.5319 336° Northwest 233 268 21,000  Level Miami Center
12:05PM 26.5117 -80.5642 337° Northwest 233 268 21,000  Level Miami Center
12:06PM 26.5633 -80.5892 342° North 233 268 21,000  Level Miami Center
12:07PM 26.6336 -80.6144 340° North 233 268 21,000  Level Miami Center
12:08PM 26.6894 -80.6372 342° North 233 268 21,000  Level Miami Center
12:09PM 26.7597 -80.6628 339° North 238 274 21,000  Level Miami Center
12:10PM 26.8197 -80.6881 342° North 238 274 21,000  Level Miami Center
12:11PM 26.8836 -80.7111 344° North 233 268 21,000  Level Miami Center
12:12PM 26.9458 -80.7317 340° North 233 268 21,000  Level Miami Center
12:13PM 27.0078 -80.7572 342° North 233 268 21,000  Level Miami Center
12:14PM 27.0719 -80.7803 342° North 233 268 21,000  Level Miami Center
12:15PM 27.1339 -80.8033 342° North 233 268 21,000  Level Miami Center
12:16PM 27.1958 -80.8264 341° North 233 268 21,000  Level Miami Center
12:17PM 27.2578 -80.8497 340° North 233 268 21,000  Level Miami Center
12:18PM 27.3136 -80.8725 342° North 233 268 21,000  Level Miami Center
12:19PM 27.3778 -80.8958 342° North 227 261 21,000  Level Miami Center
12:20PM 27.4397 -80.9192 344° North 227 261 21,000  Level Miami Center
12:21PM 27.5039 -80.9400 340° North 227 261 21,000  Level Miami Center
12:22PM 27.5617 -80.9633 341° North 227 261 21,000  Level Miami Center
12:23PM 27.6214 -80.9864 343° North 227 261 21,000  Level Miami Center
12:24PM 27.6814 -81.0072 340° North 227 261 21,000  Level Miami Center
12:25PM 27.7392 -81.0306 343° North 227 261 21,000  Level Miami Center
12:26PM 27.7992 -81.0514 340° North 222 255 21,000  Level Miami Center
12:27PM 27.8569 -81.0747 340° North 227 261 21,000  Level Miami Center
12:28PM 27.9208 -81.1006 343° North 222 255 21,000  Level Miami Center
12:29PM 27.9808 -81.1217 342° North 222 255 21,000  Level Miami Center
12:30PM 28.0364 -81.1425 341° North 219 252 21,000  Level Miami Center
12:31PM 28.0900 -81.1633 341° North 219 252 21,000  Level Miami Center
12:33PM 28.2267 -81.2175 343° North 223 257 21,000  Level Jacksonville Center
12:34PM 28.2833 -81.2378 342° North 218 251 21,000  Level Jacksonville Center
12:35PM 28.3378 -81.2583 341° North 212 244 21,000  Level Jacksonville Center
12:36PM 28.3944 -81.2808 342° North 212 244 21,000  Level Jacksonville Center
12:37PM 28.4489 -81.3014 343° North 212 244 21,000  Level Jacksonville Center
12:38PM 28.4931 -81.3172 22° Northeast 212 244 21,000  Level Jacksonville Center
12:39PM 28.5678 -81.2828 27° Northeast 207 238 21,000  Level Jacksonville Center
12:40PM 28.6297 -81.2464 26° Northeast 230 265 21,000  Level Jacksonville Center
12:41PM 28.6900 -81.2122 North 236 272 21,000  Level Jacksonville Center
12:42PM 28.7525 -81.2042 North 231 266 21,000  Level Jacksonville Center
12:43PM 28.8128 -81.1961 North 220 253 21,000  Level Jacksonville Center
12:44PM 28.8753 -81.1878 North 220 253 21,000  Level Jacksonville Center
12:46PM 28.9942 -81.1739 357° North 215 247 21,000  Level Jacksonville Center
12:47PM 29.0506 -81.1778 353° North 209 241 21,000  Level Jacksonville Center
12:48PM 29.1069 -81.1861 359° North 209 241 21,000  Level Jacksonville Center
12:49PM 29.1633 -81.1875 355° North 204 235 21,000  Level Jacksonville Center
12:50PM 29.2197 -81.1936 354° North 198 228 21,000  Level Jacksonville Center
12:51PM 29.2761 -81.2000 359° North 203 234 21,000  Level Jacksonville Center
12:52PM 29.3347 -81.2014 357° North 203 234 21,000  Level Jacksonville Center
12:53PM 29.3911 -81.2050 350° North 203 234 21,000  Level Jacksonville Center
12:54PM 29.4456 -81.2161 350° North 198 228 21,000  Level Jacksonville Center
12:55PM 29.4978 -81.2272 354° North 198 228 21,000  Level Jacksonville Center
12:56PM 29.5522 -81.2333 355° North 198 228 21,000  Level Jacksonville Center
12:57PM 29.6086 -81.2394 354° North 198 228 21,000  Level Jacksonville Center
12:58PM 29.6631 -81.2458 355° North 198 228 21,000  Level Jacksonville Center
12:59PM 29.7194 -81.2519 354° North 198 228 21,000  Level Jacksonville Center
01:00PM 29.7758 -81.2583 352° North 198 228 21,000  Level Jacksonville Center
01:01PM 29.8303 -81.2669 357° North 198 228 21,000  Level Jacksonville Center
01:02PM 29.8867 -81.2708 352° North 198 228 21,000  Level Jacksonville Center
01:03PM 29.9431 -81.2794 355° North 198 228 21,000  Level Jacksonville Center
01:04PM 29.9997 -81.2856 354° North 198 228 21,000  Level Jacksonville Center
01:05PM 30.0519 -81.2919 354° North 204 235 21,000  Level Jacksonville Center
01:06PM 30.1083 -81.2983 355° North 204 235 21,000  Level Jacksonville Center
01:07PM 30.1647 -81.3044 352° North 199 229 21,000  Level Jacksonville Center
01:08PM 30.2211 -81.3131 354° North 199 229 21,000  Level Jacksonville Center
01:09PM 30.2778 -81.3194 354° North 199 229 21,000  Level Jacksonville Center
01:10PM 30.3342 -81.3258 North 199 229 21,000  Level Jacksonville Center
01:11PM 30.3925 -81.3247 North 199 229 21,000  Level Jacksonville Center
01:12PM 30.4511 -81.3214 North 199 229 21,000  Level Jacksonville Center
01:13PM 30.5114 -81.3156 North 199 229 21,000  Level Jacksonville Center
01:14PM 30.5719 -81.3122 North 204 235 21,000  Level Jacksonville Center
01:15PM 30.6303 -81.3089 North 204 235 21,000  Level Jacksonville Center
01:16PM 30.6867 -81.3056 North 204 235 21,000  Level Jacksonville Center
01:17PM 30.7450 -81.2997 North 204 235 21,000  Level Jacksonville Center
01:18PM 30.8036 -81.2939 North 204 235 21,000  Level Jacksonville Center
01:19PM 30.8619 -81.2906 North 204 235 21,000  Level Jacksonville Center
01:20PM 30.9225 -81.2869 North 209 241 21,000  Level Jacksonville Center
01:21PM 30.9786 -81.2811 North 209 241 21,000  Level Jacksonville Center
01:22PM 31.0350 -81.2803 North 209 241 21,000  Level Jacksonville Center
01:23PM 31.0914 -81.2744 North 204 235 21,000  Level Jacksonville Center
01:24PM 31.1497 -81.2686 North 204 235 21,000  Level Jacksonville Center
01:25PM 31.2061 -81.2653 North 204 235 21,000  Level Jacksonville Center
01:26PM 31.2667 -81.2617 North 204 235 21,000  Level Jacksonville Center
01:27PM 31.3250 -81.2583 North 199 229 21,000  Level Jacksonville Center
01:28PM 31.3878 -81.2572 11° North 199 229 21,000  Level Jacksonville Center
01:29PM 31.4439 -81.2439 21° North 199 229 21,000  Level Jacksonville Center
01:30PM 31.5000 -81.2186 21° North 212 244 21,000  Level Jacksonville Center
01:31PM 31.5622 -81.1906 20° North 212 244 21,000  Level Jacksonville Center
01:32PM 31.6161 -81.1678 19° North 218 251 21,000  Level Jacksonville Center
01:33PM 31.6806 -81.1422 19° North 224 258 21,000  Level Jacksonville Center
01:34PM 31.7367 -81.1192 23° Northeast 224 258 21,000  Level Jacksonville Center
01:35PM 31.7883 -81.0936 19° North 224 258 21,000  Level Jacksonville Center
01:36PM 31.8528 -81.0681 19° North 224 258 21,000  Level Jacksonville Center
01:37PM 31.9108 -81.0447 21° North 218 251 21,000  Level Jacksonville Center
01:38PM 31.9606 -81.0217 18° North 223 257 21,000  Level Jacksonville Center
01:39PM 32.0269 -80.9958 19° North 223 257 21,000  Level Jacksonville Center
01:40PM 32.0789 -80.9753 21° North 223 257 21,000  Level Jacksonville Center
01:41PM 32.1411 -80.9469 19° North 223 257 21,000  Level Jacksonville Center
01:42PM 32.1992 -80.9236 20° North 223 257 21,000  Level Jacksonville Center
01:43PM 32.2531 -80.9003 20° North 223 257 21,000  Level Jacksonville Center
01:44PM 32.3175 -80.8719 21° North 223 257 21,000  Level Jacksonville Center
01:45PM 32.3692 -80.8486 20° North 223 257 21,000  Level Jacksonville Center
01:46PM 32.4294 -80.8225 21° North 223 257 21,000  Level Jacksonville Center
01:47PM 32.4917 -80.7942 20° North 228 262 21,000  Level Jacksonville Center
01:48PM 32.5517 -80.7681 20° North 228 262 21,000  Level Jacksonville Center
01:49PM 32.6117 -80.7419 20° North 228 262 21,000  Level Jacksonville Center
01:50PM 32.6719 -80.7158 19° North 228 262 21,000  Level Jacksonville Center
01:51PM 32.7361 -80.6897 20° North 228 262 21,000  Level Jacksonville Center
01:52PM 32.7961 -80.6636 20° North 228 262 21,000  Level Jacksonville Center
01:53PM 32.8625 -80.6347 21° North 228 262 21,000  Level Jacksonville Center
01:54PM 32.9244 -80.6058 18° North 228 262 21,000  Level Jacksonville Center
01:55PM 32.9847 -80.5819 20° North 228 262 21,000  Level Jacksonville Center
01:56PM 33.0447 -80.5558 20° North 228 262 21,000  Level Jacksonville Center
01:57PM 33.1069 -80.5292 22° Northeast 228 262 21,000  Level Jacksonville Center
01:58PM 33.1667 -80.5006 20° North 228 262 21,000  Level Jacksonville Center
01:59PM 33.2289 -80.4739 21° North 228 262 21,000  Level Jacksonville Center
02:00PM 33.2908 -80.4450 20° North 228 262 21,000  Level Jacksonville Center
02:01PM 33.3531 -80.4183 21° North 228 262 21,000  Level Jacksonville Center
02:02PM 33.4172 -80.3892 19° North 228 262 21,000  Level Jacksonville Center
02:03PM 33.4814 -80.3625 20° North 228 262 21,000  Level Jacksonville Center
02:04PM 33.5433 -80.3358 21° North 228 262 21,000  Level Jacksonville Center
02:05PM 33.6075 -80.3064 20° North 228 262 21,000  Level Jacksonville Center
02:06PM 33.6675 -80.2797 21° North 228 262 21,000  Level Jacksonville Center
02:07PM 33.7317 -80.2503 21° North 228 262 21,000  Level Jacksonville Center
02:08PM 33.7936 -80.2211 19° North 228 262 21,000  Level Jacksonville Center
02:09PM 33.8597 -80.1942 21° North 228 262 21,000  Level Jacksonville Center
02:10PM 33.9239 -80.1644 22° Northeast 234 269 21,000  Level Jacksonville Center
02:11PM 33.9836 -80.1353 20° North 234 269 21,000  Level Jacksonville Center
02:12PM 34.0456 -80.1081 22° Northeast 234 269 21,000  Level Jacksonville Center
02:13PM 34.1056 -80.0786 18° North 229 264 21,000  Level Jacksonville Center
02:14PM 34.1675 -80.0539 20° North 229 264 21,000  Level Jacksonville Center
02:15PM 34.2275 -80.0269 21° North 229 264 21,000  Level Jacksonville Center
02:16PM 34.2914 -79.9972 18° North 229 264 21,000  Level Jacksonville Center
02:18PM 34.3883 -79.9581 21° North 232 267 21,000  Level Washington Center
02:19PM 34.4500 -79.9286 22° Northeast 240 276 21,000  Level Washington Center
02:19PM 34.5114 -79.8992 22° Northeast 232 267 21,000  Level Washington Center
02:20PM 34.5711 -79.8694 20° North 232 267 21,000  Level Washington Center
02:22PM 34.6325 -79.8425 19° North 232 267 21,000  Level Washington Center
02:23PM 34.6981 -79.8156 21° North 232 267 21,000  Level Washington Center
02:24PM 34.7511 -79.7906 21° North 232 267 21,000  Level Washington Center
02:24PM 34.8106 -79.7633 21° North 232 267 21,000  Level Washington Center
02:25PM 34.8742 -79.7336 23° Northeast 232 267 21,000  Level Washington Center
02:27PM 34.9378 -79.7014 18° North 232 267 21,000  Level Washington Center
02:28PM 35.0014 -79.6767 21° North 232 267 21,000  Level Washington Center
02:29PM 35.0650 -79.6469 23° Northeast 232 267 21,000  Level Washington Center
02:30PM 35.1350 -79.6100 32° Northeast 232 267 21,000 -300 Level Washington Center
02:30PM 35.1972 -79.5622 29° Northeast 250 288 20,500 -540 Descending Washington Center
02:31PM 35.2633 -79.5172 31° Northeast 262 302 20,000 -300 Descending Washington Center
02:32PM 35.3275 -79.4694 30° Northeast 262 302 20,000  Level Washington Center
02:34PM 35.3917 -79.4239 30° Northeast 262 302 20,000  Level Washington Center
02:35PM 35.4492 -79.3833 30° Northeast 262 302 20,000  Level Washington Center
02:36PM 35.5175 -79.3356 31° Northeast 262 302 20,000  Level Washington Center
02:37PM 35.5731 -79.2947 31° Northeast 257 296 20,000 -120 Level Washington Center
02:37PM 35.6369 -79.2467 30° Northeast 257 296 19,800 -420 Descending Washington Center
02:39PM 35.7011 -79.2011 32° Northeast 262 302 19,200 -420 Descending Washington Center
02:40PM 35.7672 -79.1503 28° Northeast 267 307 19,000 -120 Descending Washington Center
02:41PM 35.8333 -79.1072 32° Northeast 267 307 19,000  Level Washington Center
02:42PM 35.9017 -79.0539 30° Northeast 267 307 19,000  Level Washington Center
02:42PM 35.9675 -79.0078 31° Northeast 267 307 19,000  Level Washington Center
02:43PM 36.0336 -78.9594 30° Northeast 267 307 19,000  Level Washington Center
02:45PM 36.0975 -78.9133 32° Northeast 267 307 19,000  Level Washington Center
02:46PM 36.1636 -78.8619 29° Northeast 267 307 19,000  Level Washington Center
02:47PM 36.2294 -78.8158 32° Northeast 267 307 19,000  Level Washington Center
02:48PM 36.2933 -78.7669 31° Northeast 267 307 19,000  Level Washington Center
02:48PM 36.3617 -78.7156 29° Northeast 272 313 19,000  Level Washington Center
02:49PM 36.4211 -78.6739 32° Northeast 272 313 19,000  Level Washington Center
02:51PM 36.4850 -78.6247 28° Northeast 272 313 19,000  Level Washington Center
02:52PM 36.5506 -78.5808 31° Northeast 272 313 19,000  Level Washington Center
02:52PM 36.6167 -78.5317 35° Northeast 266 306 19,000  Level Washington Center
02:53PM 36.6847 -78.4719 31° Northeast 271 312 19,000  Level Washington Center
02:55PM 36.7400 -78.4300 33° Northeast 271 312 19,000  Level Washington Center
02:56PM 36.8017 -78.3803 29° Northeast 265 305 19,000  Level Washington Center
02:56PM 36.8653 -78.3361 31° Northeast 259 298 19,000  Level Washington Center
02:57PM 36.9269 -78.2889 30° Northeast 259 298 19,000  Level Washington Center
02:59PM 36.9925 -78.2417 32° Northeast 259 298 19,000  Level Washington Center
03:00PM 37.0628 -78.1869 31° Northeast 259 298 19,000  Level Washington Center
03:00PM 37.1200 -78.1444 32° Northeast 259 298 19,000  Level Washington Center
03:02PM 37.1878 -78.0919 32° Northeast 259 298 19,000 -780 Level Washington Center
03:03PM 37.2556 -78.0394 32° Northeast 265 305 17,500 -1,440 Descending Washington Center
03:04PM 37.3192 -77.9892 32° Northeast 270 311 16,100 -1,260 Descending Washington Center
03:04PM 37.3869 -77.9364 30° Northeast 275 316 15,100 -540 Descending Washington Center
03:06PM 37.4483 -77.8914 30° Northeast 269 310 15,100 -60 Level Washington Center
03:07PM 37.5097 -77.8458 29° Northeast 264 304 15,000 -60 Descending Washington Center
03:08PM 37.5711 -77.8033 24° Northeast 259 298 15,000  Level Washington Center
03:09PM 37.6364 -77.7658 24° Northeast 253 291 15,000 -360 Level Washington Center
03:09PM 37.7017 -77.7283 26° Northeast 248 285 14,400 -780 Descending Washington Center
03:11PM 37.7711 -77.6856 23° Northeast 253 291 13,500 -900 Descending Washington Center
03:12PM 37.8408 -77.6481 27° Northeast 264 304 12,600 -900 Descending Washington Center
03:13PM 37.9039 -77.6078 24° Northeast 258 297 11,800 -900 Descending Washington Center
03:14PM 37.9650 -77.5725 24° Northeast 252 290 10,900 -960 Descending Washington Center
03:14PM 38.0261 -77.5372 24° Northeast 241 277 10,000 -1,080 Descending Washington Center
03:15PM 38.0850 -77.5044 26° Northeast 236 272 8,800 -1,020 Descending Washington Center
03:16PM 38.1419 -77.4689 26° Northeast 236 272 8,000 -420 Descending Washington Center
03:18PM 38.1986 -77.4333 23° Northeast 231 266 8,000 -600 Level Washington Center
03:20PM 38.3500 -77.3500 360° North 237 273 6,100 -960 Descending Potomac TRACON
03:21PM 38.4000 -77.3500 349° North 218 251 4,900 -1,080 Descending Potomac TRACON
03:22PM 38.4667 -77.3667 360° North 223 257 4,000 -480 Descending Potomac TRACON
03:23PM 38.5167 -77.3667 360° North 199 229 4,000  Level Potomac TRACON
03:24PM 38.5667 -77.3667 360° North 197 227 4,000 -360 Level Potomac TRACON
03:25PM 38.6167 -77.3667 360° North 207 238 3,400 -600 Descending Potomac TRACON
03:26PM 38.6833 -77.3667 360° North 204 235 2,900 -240 Descending Potomac TRACON
03:27PM 38.7333 -77.3667 11° North 187 215 3,000 60 Climbing Potomac TRACON
03:28PM 38.8000 -77.3500 360° North 193 222 3,100  Climbing Potomac TRACON
03:29PM 38.8500 -77.3500 360° North 202 232 3,000 -60 Descending Potomac TRACON
03:30PM 38.9000 -77.3500 360° North 195 224 3,000 -420 Level Potomac TRACON
03:31PM 38.9500 -77.3500 360° North 204 235 2,200 -480 Descending Potomac TRACON
03:32PM 39.0000 -77.3500 293° West 171 197 2,100 -300 Descending Potomac TRACON
03:33PM 39.0167 -77.4000 237° Southwest 134 154 1,600 -480 Descending Potomac TRACON
03:34PM 39.0000 -77.4333 180° South 119 137 1,100 -540 Descending Potomac TRACON
03:35PM 38.9667 -77.4333 180° South 116 133 600 -540 Descending Potomac TRACON